createdAt,value
2023-05-21T00:00:38.130Z,68.68
2023-05-21T00:02:05.508Z,68.70
2023-05-21T00:03:14.819Z,68.76
2023-05-21T00:04:21.097Z,68.73
2023-05-21T00:05:27.469Z,69.61
2023-05-21T00:06:35.940Z,69.74
2023-05-21T00:07:45.579Z,69.60
2023-05-21T00:08:51.839Z,69.37
2023-05-21T00:09:57.622Z,69.35
2023-05-21T00:11:03.353Z,69.19
2023-05-21T00:12:10.922Z,69.34
2023-05-21T00:13:17.342Z,69.37
2023-05-21T00:14:23.482Z,69.46
2023-05-21T00:15:29.380Z,69.28
2023-05-21T00:16:35.898Z,69.57
2023-05-21T00:17:43.931Z,69.49
2023-05-21T00:18:50.155Z,69.26
2023-05-21T00:19:57.083Z,69.25
2023-05-21T00:21:06.141Z,69.24
2023-05-21T00:22:14.635Z,69.39
2023-05-21T00:23:21.965Z,69.32
2023-05-21T00:24:28.021Z,69.16
2023-05-21T00:25:34.701Z,69.27
2023-05-21T00:26:42.037Z,69.20
2023-05-21T00:27:48.801Z,69.29
2023-05-21T00:28:54.560Z,69.21
2023-05-21T00:30:01.510Z,69.52
2023-05-21T00:31:07.905Z,69.42
2023-05-21T00:32:14.254Z,69.79
2023-05-21T00:33:22.000Z,69.87
2023-05-21T00:34:27.920Z,70.12
2023-05-21T00:35:35.229Z,70.19
2023-05-21T00:36:47.662Z,70.07
2023-05-21T00:37:54.185Z,70.00
2023-05-21T00:39:00.688Z,69.96
2023-05-21T00:40:11.656Z,70.19
2023-05-21T00:41:19.947Z,70.01
2023-05-21T00:42:27.524Z,70.02
2023-05-21T00:43:33.890Z,70.08
2023-05-21T00:44:40.313Z,70.02
2023-05-21T00:45:48.509Z,70.06
2023-05-21T00:46:55.769Z,70.33
2023-05-21T00:48:02.873Z,70.19
2023-05-21T00:49:09.471Z,70.20
2023-05-21T00:50:17.807Z,70.12
2023-05-21T00:51:24.953Z,70.02
2023-05-21T00:52:31.576Z,70.03
2023-05-21T00:53:38.958Z,69.96
2023-05-21T00:54:45.110Z,70.08
2023-05-21T00:55:52.413Z,70.04
2023-05-21T00:56:59.159Z,70.16
2023-05-21T00:58:06.628Z,70.25
2023-05-21T00:59:13.605Z,70.06
2023-05-21T01:00:20.678Z,69.91
2023-05-21T01:01:27.549Z,69.95
2023-05-21T01:02:35.170Z,70.20
2023-05-21T01:03:42.216Z,70.12
2023-05-21T01:04:48.768Z,70.17
2023-05-21T01:06:00.004Z,70.08
2023-05-21T01:07:12.504Z,69.95
2023-05-21T01:08:21.085Z,69.99
2023-05-21T01:09:27.956Z,70.09
2023-05-21T01:10:34.024Z,70.01
2023-05-21T01:11:45.350Z,69.94
2023-05-21T01:12:52.946Z,69.77
2023-05-21T01:14:04.329Z,69.79
2023-05-21T01:15:14.473Z,69.74
2023-05-21T01:16:21.949Z,69.73
2023-05-21T01:17:31.875Z,69.72
2023-05-21T01:18:44.093Z,69.66
2023-05-21T01:19:53.154Z,69.65
2023-05-21T01:20:58.011Z,69.63
2023-05-21T01:22:09.716Z,69.66
2023-05-21T01:23:16.486Z,69.59
2023-05-21T01:24:23.312Z,69.57
2023-05-21T01:25:29.634Z,69.66
2023-05-21T01:26:39.376Z,69.65
2023-05-21T01:27:46.457Z,69.71
2023-05-21T01:28:55.034Z,69.71
2023-05-21T01:30:03.260Z,69.64
2023-05-21T01:31:19.870Z,69.66
2023-05-21T01:32:33.781Z,69.71
2023-05-21T01:33:47.950Z,69.72
2023-05-21T01:35:03.311Z,69.90
2023-05-21T01:36:16.928Z,69.98
2023-05-21T01:37:30.053Z,70.05
2023-05-21T01:38:43.294Z,69.99
2023-05-21T01:39:57.092Z,70.07
2023-05-21T01:41:08.950Z,70.01
2023-05-21T01:42:17.038Z,70.04
2023-05-21T01:43:27.188Z,69.99
2023-05-21T01:44:36.307Z,69.93
2023-05-21T01:45:45.555Z,69.92
2023-05-21T01:46:55.517Z,70.00
2023-05-21T01:48:06.599Z,70.08
2023-05-21T01:49:18.243Z,70.02
2023-05-21T01:50:26.876Z,70.22
2023-05-21T01:51:35.028Z,70.26
2023-05-21T01:52:48.429Z,70.26
2023-05-21T01:53:55.028Z,70.34
2023-05-21T01:55:02.561Z,70.43
2023-05-21T01:56:11.531Z,70.58
2023-05-21T01:57:18.684Z,70.49
2023-05-21T01:58:24.859Z,70.68
2023-05-21T01:59:31.339Z,70.74
2023-05-21T02:00:40.441Z,70.73
2023-05-21T02:01:47.181Z,70.80
2023-05-21T02:02:56.372Z,70.88
2023-05-21T02:04:09.865Z,71.05
2023-05-21T02:05:17.626Z,71.01
2023-05-21T02:06:24.708Z,71.13
2023-05-21T02:07:34.050Z,71.16
2023-05-21T02:08:40.736Z,71.25
2023-05-21T02:09:46.539Z,71.28
2023-05-21T02:10:53.324Z,71.48
2023-05-21T02:11:59.826Z,71.69
2023-05-21T02:13:06.859Z,71.64
2023-05-21T02:14:14.478Z,71.67
2023-05-21T02:15:22.654Z,71.63
2023-05-21T02:16:32.031Z,71.73
2023-05-21T02:17:38.956Z,71.92
2023-05-21T02:18:46.991Z,72.18
2023-05-21T02:19:56.097Z,72.23
2023-05-21T02:21:02.485Z,72.27
2023-05-21T02:22:11.378Z,72.72
2023-05-21T02:23:17.532Z,72.60
2023-05-21T02:24:24.507Z,72.74
2023-05-21T02:25:30.852Z,72.71
2023-05-21T02:26:37.523Z,72.84
2023-05-21T02:27:44.664Z,72.81
2023-05-21T02:28:53.217Z,72.99
2023-05-21T02:29:59.931Z,73.01
2023-05-21T02:31:06.109Z,73.20
2023-05-21T02:32:12.362Z,73.21
2023-05-21T02:33:20.651Z,73.15
2023-05-21T02:34:31.428Z,73.25
2023-05-21T02:35:37.915Z,73.56
2023-05-21T02:36:44.326Z,73.41
2023-05-21T02:37:50.327Z,73.41
2023-05-21T02:38:57.881Z,73.44
2023-05-21T02:40:07.094Z,73.20
2023-05-21T02:41:13.539Z,73.36
2023-05-21T02:42:19.573Z,73.46
2023-05-21T02:43:27.907Z,73.48
2023-05-21T02:44:34.033Z,73.50
2023-05-21T02:45:41.220Z,73.44
2023-05-21T02:46:47.273Z,73.62
2023-05-21T02:47:53.080Z,73.71
2023-05-21T02:48:59.365Z,73.62
2023-05-21T02:50:09.217Z,73.66
2023-05-21T02:51:16.450Z,73.75
2023-05-21T02:52:24.661Z,73.71
2023-05-21T02:53:32.871Z,73.77
2023-05-21T02:54:39.160Z,73.79
2023-05-21T02:55:45.015Z,73.80
2023-05-21T02:56:51.820Z,73.97
2023-05-21T02:57:57.834Z,73.84
2023-05-21T02:59:04.243Z,73.94
2023-05-21T03:00:13.569Z,74.04
2023-05-21T03:01:18.148Z,73.87
2023-05-21T03:02:26.101Z,73.87
2023-05-21T03:03:32.961Z,73.81
2023-05-21T03:04:46.770Z,73.89
2023-05-21T03:05:54.223Z,74.04
2023-05-21T03:07:02.251Z,73.93
2023-05-21T03:08:08.588Z,73.88
2023-05-21T03:09:15.004Z,73.91
2023-05-21T03:10:21.474Z,73.97
2023-05-21T03:11:27.659Z,73.81
2023-05-21T03:12:34.222Z,73.77
2023-05-21T03:13:40.810Z,73.77
2023-05-21T03:14:46.752Z,73.61
2023-05-21T03:15:57.013Z,73.53
2023-05-21T03:17:06.516Z,73.46
2023-05-21T03:18:13.402Z,73.43
2023-05-21T03:19:21.083Z,73.24
2023-05-21T03:20:30.694Z,73.24
2023-05-21T03:21:36.972Z,73.14
2023-05-21T03:22:44.524Z,73.04
2023-05-21T03:23:52.094Z,72.97
2023-05-21T03:24:58.544Z,72.94
2023-05-21T03:26:04.801Z,72.93
2023-05-21T03:27:11.076Z,72.77
2023-05-21T03:28:19.565Z,72.80
2023-05-21T03:29:25.515Z,72.74
2023-05-21T03:30:31.933Z,72.67
2023-05-21T03:31:38.308Z,72.68
2023-05-21T03:32:45.456Z,72.60
2023-05-21T03:33:53.741Z,72.55
2023-05-21T03:35:00.220Z,72.34
2023-05-21T03:36:07.491Z,72.24
2023-05-21T03:37:14.616Z,72.25
2023-05-21T03:38:20.770Z,72.02
2023-05-21T03:39:29.166Z,71.92
2023-05-21T03:40:35.543Z,71.79
2023-05-21T03:41:42.481Z,71.72
2023-05-21T03:42:48.852Z,71.75
2023-05-21T03:43:54.740Z,71.69
2023-05-21T03:45:01.120Z,71.53
2023-05-21T03:46:07.488Z,71.49
2023-05-21T03:47:13.878Z,71.48
2023-05-21T03:48:20.003Z,71.35
2023-05-21T03:49:28.352Z,71.23
2023-05-21T03:50:34.556Z,71.16
2023-05-21T03:51:40.732Z,71.03
2023-05-21T03:52:46.852Z,70.94
2023-05-21T03:53:53.031Z,70.76
2023-05-21T03:54:59.906Z,70.75
2023-05-21T03:56:08.560Z,70.75
2023-05-21T03:57:14.965Z,70.66
2023-05-21T03:58:21.339Z,70.45
2023-05-21T03:59:27.446Z,70.38
2023-05-21T04:00:36.743Z,70.28
2023-05-21T04:01:42.984Z,70.16
2023-05-21T04:02:49.281Z,70.22
2023-05-21T04:03:56.003Z,70.09
2023-05-21T04:05:02.174Z,69.89
2023-05-21T04:06:13.107Z,69.74
2023-05-21T04:07:19.800Z,69.70
2023-05-21T04:08:26.296Z,69.64
2023-05-21T04:09:32.933Z,69.42
2023-05-21T04:10:40.658Z,69.35
2023-05-21T04:11:48.547Z,69.26
2023-05-21T04:12:54.712Z,69.02
2023-05-21T04:14:02.079Z,68.90
2023-05-21T04:15:11.114Z,68.87
2023-05-21T04:16:20.302Z,68.68
2023-05-21T04:17:28.062Z,68.59
2023-05-21T04:18:34.494Z,68.61
2023-05-21T04:19:41.450Z,68.34
2023-05-21T04:20:47.872Z,68.21
2023-05-21T04:21:58.249Z,67.95
2023-05-21T04:23:03.974Z,67.73
2023-05-21T04:24:12.758Z,67.63
2023-05-21T04:25:20.428Z,67.45
2023-05-21T04:26:26.674Z,67.06
2023-05-21T04:27:34.969Z,66.87
2023-05-21T04:28:42.229Z,66.82
2023-05-21T04:29:50.712Z,66.72
2023-05-21T04:30:58.779Z,66.65
2023-05-21T04:32:06.365Z,66.53
2023-05-21T04:33:12.877Z,66.32
2023-05-21T04:34:19.031Z,65.89
2023-05-21T04:35:26.923Z,65.80
2023-05-21T04:36:34.194Z,65.57
2023-05-21T04:37:49.011Z,65.37
2023-05-21T04:38:55.724Z,65.19
2023-05-21T04:40:05.884Z,65.19
2023-05-21T04:41:15.100Z,65.38
2023-05-21T04:42:24.571Z,65.10
2023-05-21T04:43:33.140Z,64.97
2023-05-21T04:44:40.551Z,64.74
2023-05-21T04:45:47.419Z,64.62
2023-05-21T04:46:54.991Z,64.46
2023-05-21T04:48:01.564Z,64.25
2023-05-21T04:49:07.475Z,64.21
2023-05-21T04:50:14.679Z,64.24
2023-05-21T04:51:24.637Z,63.89
2023-05-21T04:52:32.388Z,63.96
2023-05-21T04:53:39.198Z,63.95
2023-05-21T04:54:46.932Z,63.60
2023-05-21T04:55:53.410Z,63.40
2023-05-21T04:56:59.354Z,63.14
2023-05-21T04:58:05.431Z,63.68
2023-05-21T04:59:11.900Z,63.37
2023-05-21T05:00:18.344Z,62.83
2023-05-21T05:01:27.476Z,62.84
2023-05-21T05:02:33.984Z,62.52
2023-05-21T05:03:40.162Z,61.47
2023-05-21T05:04:46.587Z,61.81
2023-05-21T05:05:52.860Z,61.88
2023-05-21T05:06:58.900Z,61.79
2023-05-21T05:08:07.425Z,61.00
2023-05-21T05:09:13.688Z,60.30
2023-05-21T05:10:20.467Z,59.66
2023-05-21T05:11:27.050Z,59.90
2023-05-21T05:12:32.736Z,60.10
2023-05-21T05:13:39.364Z,60.03
2023-05-21T05:14:45.972Z,60.06
2023-05-21T05:15:54.926Z,60.29
2023-05-21T05:17:03.005Z,60.27
2023-05-21T05:18:09.582Z,59.41
2023-05-21T05:19:16.442Z,59.44
2023-05-21T05:20:23.414Z,58.95
2023-05-21T05:21:29.808Z,58.47
2023-05-21T05:22:36.303Z,58.66
2023-05-21T05:23:42.015Z,58.95
2023-05-21T05:24:48.441Z,58.79
2023-05-21T05:25:54.403Z,58.78
2023-05-21T05:27:01.393Z,58.76
2023-05-21T05:28:07.552Z,58.79
2023-05-21T05:29:13.645Z,58.86
2023-05-21T05:30:21.012Z,58.45
2023-05-21T05:31:29.548Z,58.17
2023-05-21T05:32:36.862Z,57.99
2023-05-21T05:33:44.537Z,57.96
2023-05-21T05:34:50.302Z,57.85
2023-05-21T05:35:56.387Z,57.54
2023-05-21T05:37:03.001Z,57.79
2023-05-21T05:38:09.264Z,57.84
2023-05-21T05:39:15.492Z,57.59
2023-05-21T05:40:21.407Z,57.63
2023-05-21T05:41:27.634Z,57.66
2023-05-21T05:42:33.785Z,57.77
2023-05-21T05:43:39.874Z,57.74
2023-05-21T05:44:45.970Z,57.69
2023-05-21T05:45:52.429Z,57.63
2023-05-21T05:46:58.668Z,57.26
2023-05-21T05:48:07.433Z,57.39
2023-05-21T05:49:17.116Z,57.29
2023-05-21T05:50:23.364Z,57.12
2023-05-21T05:51:30.362Z,57.09
2023-05-21T05:52:36.703Z,56.91
2023-05-21T05:53:43.211Z,56.60
2023-05-21T05:54:49.469Z,56.14
2023-05-21T05:55:55.795Z,56.16
2023-05-21T05:57:01.779Z,56.01
2023-05-21T05:58:07.849Z,55.77
2023-05-21T05:59:14.241Z,55.47
2023-05-21T06:00:20.464Z,55.17
2023-05-21T06:01:27.139Z,54.88
2023-05-21T06:02:33.351Z,54.59
2023-05-21T06:03:41.169Z,54.18
2023-05-21T06:04:47.517Z,53.91
2023-05-21T06:05:53.679Z,53.65
2023-05-21T06:07:00.573Z,53.42
2023-05-21T06:08:08.832Z,53.11
2023-05-21T06:09:14.943Z,52.68
2023-05-21T06:10:20.879Z,52.57
2023-05-21T06:11:26.754Z,52.07
2023-05-21T06:12:32.767Z,51.73
2023-05-21T06:13:38.915Z,51.95
2023-05-21T06:14:46.930Z,51.80
2023-05-21T06:15:54.079Z,51.46
2023-05-21T06:17:01.594Z,51.57
2023-05-21T06:18:08.186Z,51.66
2023-05-21T06:19:14.310Z,51.44
2023-05-21T06:20:21.037Z,51.77
2023-05-21T06:21:27.946Z,51.88
2023-05-21T06:22:34.183Z,52.22
2023-05-21T06:23:40.936Z,52.23
2023-05-21T06:24:47.614Z,52.30
2023-05-21T06:25:53.813Z,51.70
2023-05-21T06:27:00.949Z,51.33
2023-05-21T06:28:07.134Z,51.43
2023-05-21T06:29:15.414Z,51.80
2023-05-21T06:30:21.650Z,51.78
2023-05-21T06:31:28.753Z,51.12
2023-05-21T06:32:35.133Z,50.11
2023-05-21T06:33:41.228Z,49.73
2023-05-21T06:34:47.345Z,49.68
2023-05-21T06:35:53.627Z,49.53
2023-05-21T06:36:59.305Z,50.01
2023-05-21T06:38:05.594Z,49.84
2023-05-21T06:39:11.829Z,49.39
2023-05-21T06:40:18.380Z,48.07
2023-05-21T06:41:24.731Z,47.78
2023-05-21T06:42:31.020Z,48.75
2023-05-21T06:43:37.953Z,48.67
2023-05-21T06:44:45.092Z,49.07
2023-05-21T06:45:52.327Z,48.90
2023-05-21T06:46:58.654Z,49.40
2023-05-21T06:48:06.852Z,49.46
2023-05-21T06:49:14.447Z,49.49
2023-05-21T06:50:24.144Z,49.17
2023-05-21T06:51:30.074Z,49.48
2023-05-21T06:52:36.291Z,48.80
2023-05-21T06:53:42.585Z,48.60
2023-05-21T06:54:48.985Z,48.71
2023-05-21T06:55:54.893Z,49.07
2023-05-21T06:57:01.741Z,48.21
2023-05-21T06:58:07.925Z,48.13
2023-05-21T06:59:15.019Z,48.78
2023-05-21T07:00:23.389Z,48.43
2023-05-21T07:01:31.267Z,48.66
2023-05-21T07:02:37.546Z,48.76
2023-05-21T07:03:44.307Z,48.97
2023-05-21T07:04:51.960Z,48.89
2023-05-21T07:05:58.334Z,48.94
2023-05-21T07:07:05.124Z,48.87
2023-05-21T07:08:14.520Z,48.76
2023-05-21T07:09:20.743Z,48.47
2023-05-21T07:10:27.360Z,47.55
2023-05-21T07:11:33.287Z,46.66
2023-05-21T07:12:41.477Z,46.58
2023-05-21T07:13:50.463Z,46.69
2023-05-21T07:14:58.158Z,47.04
2023-05-21T07:16:09.117Z,46.36
2023-05-21T07:17:15.778Z,46.39
2023-05-21T07:18:22.459Z,47.20
2023-05-21T07:19:28.732Z,47.44
2023-05-21T07:20:36.559Z,47.29
2023-05-21T07:21:42.963Z,47.18
2023-05-21T07:22:49.440Z,47.30
2023-05-21T07:23:55.376Z,47.22
2023-05-21T07:25:01.732Z,46.14
2023-05-21T07:26:08.750Z,46.05
2023-05-21T07:27:25.459Z,46.72
2023-05-21T07:28:32.676Z,46.68
2023-05-21T07:29:40.799Z,46.90
2023-05-21T07:30:47.313Z,46.98
2023-05-21T07:31:53.143Z,46.73
2023-05-21T07:32:59.235Z,47.02
2023-05-21T07:34:05.711Z,45.90
2023-05-21T07:35:12.081Z,45.19
2023-05-21T07:36:18.082Z,45.69
2023-05-21T07:37:27.689Z,45.18
2023-05-21T07:38:34.561Z,45.67
2023-05-21T07:39:40.608Z,45.93
2023-05-21T07:40:47.128Z,45.83
2023-05-21T07:41:53.810Z,46.01
2023-05-21T07:42:59.873Z,45.44
2023-05-21T07:44:07.230Z,44.84
2023-05-21T07:45:14.486Z,45.32
2023-05-21T07:46:20.574Z,45.60
2023-05-21T07:47:26.826Z,44.84
2023-05-21T07:48:35.314Z,43.93
2023-05-21T07:49:42.680Z,44.11
2023-05-21T07:50:50.379Z,44.41
2023-05-21T07:51:56.317Z,44.86
2023-05-21T07:53:02.723Z,45.19
2023-05-21T07:54:09.154Z,44.10
2023-05-21T07:55:16.115Z,43.86
2023-05-21T07:56:23.229Z,43.88
2023-05-21T07:57:30.695Z,43.47
2023-05-21T07:58:36.590Z,43.47
2023-05-21T07:59:42.557Z,43.44
2023-05-21T08:00:49.731Z,43.76
2023-05-21T08:01:56.130Z,44.37
2023-05-21T08:03:02.672Z,44.80
2023-05-21T08:04:09.082Z,44.40
2023-05-21T08:05:16.579Z,43.87
2023-05-21T08:06:25.430Z,43.71
2023-05-21T08:07:32.797Z,43.35
2023-05-21T08:08:39.076Z,43.93
2023-05-21T08:09:47.131Z,44.16
2023-05-21T08:10:53.214Z,43.81
2023-05-21T08:11:59.463Z,43.48
2023-05-21T08:13:06.556Z,43.00
2023-05-21T08:14:12.376Z,43.07
2023-05-21T08:15:19.456Z,43.13
2023-05-21T08:16:25.823Z,42.96
2023-05-21T08:17:32.385Z,42.91
2023-05-21T08:18:38.825Z,43.12
2023-05-21T08:19:45.069Z,43.33
2023-05-21T08:20:51.758Z,43.30
2023-05-21T08:21:57.599Z,43.23
2023-05-21T08:23:03.954Z,42.94
2023-05-21T08:24:10.407Z,42.17
2023-05-21T08:25:18.641Z,42.17
2023-05-21T08:26:25.717Z,42.43
2023-05-21T08:27:32.462Z,42.75
2023-05-21T08:28:39.805Z,42.81
2023-05-21T08:29:47.029Z,42.92
2023-05-21T08:30:53.362Z,42.47
2023-05-21T08:31:59.331Z,43.01
2023-05-21T08:33:05.879Z,43.31
2023-05-21T08:34:12.031Z,43.50
2023-05-21T08:35:17.980Z,43.58
2023-05-21T08:36:25.970Z,43.58
2023-05-21T08:37:32.995Z,43.45
2023-05-21T08:38:39.410Z,43.60
2023-05-21T08:39:45.561Z,43.65
2023-05-21T08:40:58.744Z,43.58
2023-05-21T08:42:25.652Z,43.61
2023-05-21T08:43:42.449Z,42.53
2023-05-21T08:44:53.502Z,42.71
2023-05-21T08:46:05.530Z,42.03
2023-05-21T08:47:19.238Z,41.93
2023-05-21T08:48:25.793Z,42.31
2023-05-21T08:49:35.518Z,42.51
2023-05-21T08:50:43.351Z,42.33
2023-05-21T08:51:51.474Z,42.73
2023-05-21T08:53:01.380Z,42.72
2023-05-21T08:54:10.901Z,42.67
2023-05-21T08:55:18.864Z,42.80
2023-05-21T08:56:32.662Z,42.42
2023-05-21T08:57:42.141Z,42.13
2023-05-21T08:58:52.600Z,42.18
2023-05-21T09:00:02.123Z,41.87
2023-05-21T09:01:10.005Z,41.66
2023-05-21T09:02:19.219Z,41.36
2023-05-21T09:03:33.802Z,40.73
2023-05-21T09:04:50.396Z,40.11
2023-05-21T09:06:01.567Z,40.03
2023-05-21T09:07:11.772Z,40.36
2023-05-21T09:08:25.407Z,39.85
2023-05-21T09:09:40.382Z,39.62
2023-05-21T09:11:03.857Z,39.66
2023-05-21T09:12:11.833Z,39.81
2023-05-21T09:13:22.296Z,39.42
2023-05-21T09:14:29.673Z,38.97
2023-05-21T09:15:36.898Z,38.51
2023-05-21T09:16:48.615Z,38.68
2023-05-21T09:17:56.124Z,38.41
2023-05-21T09:19:04.587Z,37.90
2023-05-21T09:20:19.298Z,38.51
2023-05-21T09:21:32.157Z,38.79
2023-05-21T09:22:48.670Z,37.10
2023-05-21T09:23:58.883Z,37.83
2023-05-21T09:25:12.407Z,37.51
2023-05-21T09:26:20.289Z,37.71
2023-05-21T09:27:26.591Z,37.70
2023-05-21T09:28:36.741Z,37.85
2023-05-21T09:29:43.932Z,37.70
2023-05-21T09:30:54.312Z,37.66
2023-05-21T09:32:05.994Z,38.09
2023-05-21T09:33:12.301Z,37.54
2023-05-21T09:34:18.232Z,37.34
2023-05-21T09:35:24.977Z,36.58
2023-05-21T09:36:31.164Z,34.66
2023-05-21T09:37:46.080Z,34.81
2023-05-21T09:39:01.969Z,33.01
2023-05-21T09:40:21.589Z,32.22
2023-05-21T09:41:36.239Z,31.87
2023-05-21T09:42:56.763Z,31.77
2023-05-21T09:44:04.512Z,31.04
2023-05-21T09:45:12.556Z,31.15
2023-05-21T09:46:28.442Z,31.99
2023-05-21T09:47:40.801Z,32.13
2023-05-21T09:48:47.279Z,32.49
2023-05-21T09:49:58.336Z,32.68
2023-05-21T09:51:12.830Z,32.38
2023-05-21T09:52:28.350Z,32.15
2023-05-21T09:53:35.907Z,32.50
2023-05-21T09:54:42.749Z,32.44
2023-05-21T09:55:54.378Z,32.36
2023-05-21T09:57:04.855Z,32.28
2023-05-21T09:58:13.662Z,31.94
2023-05-21T09:59:24.512Z,31.87
2023-05-21T10:00:31.961Z,31.92
2023-05-21T10:01:38.922Z,31.74
2023-05-21T10:02:47.965Z,31.58
2023-05-21T10:03:59.328Z,31.62
2023-05-21T10:05:09.166Z,32.25
2023-05-21T10:06:18.059Z,31.51
2023-05-21T10:07:26.672Z,31.14
2023-05-21T10:08:33.371Z,31.64
2023-05-21T10:09:40.361Z,32.15
2023-05-21T10:10:49.942Z,32.71
2023-05-21T10:11:58.075Z,32.80
2023-05-21T10:13:09.677Z,32.31
2023-05-21T10:14:22.733Z,31.33
2023-05-21T10:15:34.606Z,31.14
2023-05-21T10:16:41.074Z,31.51
2023-05-21T10:17:50.323Z,32.00
2023-05-21T10:18:58.151Z,32.13
2023-05-21T10:20:07.666Z,32.31
2023-05-21T10:21:14.379Z,32.52
2023-05-21T10:22:20.938Z,32.79
2023-05-21T10:23:30.533Z,32.66
2023-05-21T10:24:37.972Z,32.56
2023-05-21T10:25:51.148Z,32.70
2023-05-21T10:26:58.940Z,32.59
2023-05-21T10:28:07.448Z,32.48
2023-05-21T10:29:19.558Z,32.65
2023-05-21T10:30:26.730Z,32.72
2023-05-21T10:31:36.645Z,32.54
2023-05-21T10:32:43.752Z,32.59
2023-05-21T10:33:53.152Z,32.81
2023-05-21T10:35:01.754Z,32.70
2023-05-21T10:36:10.532Z,32.70
2023-05-21T10:37:19.935Z,32.36
2023-05-21T10:38:28.180Z,32.31
2023-05-21T10:39:36.315Z,32.55
2023-05-21T10:40:42.734Z,32.64
2023-05-21T10:42:12.610Z,32.72
2023-05-21T10:43:46.316Z,33.07
2023-05-21T10:45:16.254Z,32.44
2023-05-21T10:46:50.461Z,32.36
2023-05-21T10:48:34.971Z,31.62
2023-05-21T10:50:01.914Z,31.41
2023-05-21T10:51:24.074Z,31.36
2023-05-21T10:52:48.787Z,31.52
2023-05-21T10:54:17.193Z,31.81
2023-05-21T10:55:47.961Z,31.97
2023-05-21T10:57:07.067Z,32.14
2023-05-21T10:58:39.704Z,32.07
2023-05-21T10:59:49.996Z,32.49
2023-05-21T11:00:57.711Z,32.33
2023-05-21T11:02:06.687Z,32.64
2023-05-21T11:03:16.255Z,32.83
2023-05-21T11:04:28.235Z,32.98
2023-05-21T11:05:54.763Z,33.18
2023-05-21T11:07:02.099Z,33.01
2023-05-21T11:08:23.621Z,33.05
2023-05-21T11:09:29.576Z,32.93
2023-05-21T11:10:53.564Z,32.38
2023-05-21T11:12:03.049Z,32.10
2023-05-21T11:13:16.936Z,32.06
2023-05-21T11:14:40.071Z,32.12
2023-05-21T11:16:08.148Z,31.79
2023-05-21T11:17:16.374Z,31.90
2023-05-21T11:18:22.612Z,31.79
2023-05-21T11:19:40.707Z,32.02
2023-05-21T11:20:52.704Z,32.14
2023-05-21T11:21:58.604Z,32.69
2023-05-21T11:23:06.057Z,31.75
2023-05-21T11:24:28.390Z,31.11
2023-05-21T11:25:35.392Z,31.02
2023-05-21T11:27:04.379Z,31.21
2023-05-21T11:28:10.891Z,31.17
2023-05-21T11:29:18.730Z,30.95
2023-05-21T11:30:25.073Z,30.99
2023-05-21T11:31:39.287Z,31.15
2023-05-21T11:33:22.649Z,31.42
2023-05-21T11:34:37.686Z,31.20
2023-05-21T11:37:31.502Z,30.33
2023-05-21T11:38:40.015Z,30.53
2023-05-21T11:39:47.368Z,30.53
2023-05-21T11:40:55.910Z,30.46
2023-05-21T11:42:04.445Z,30.86
2023-05-21T11:43:11.592Z,30.76
2023-05-21T11:44:18.836Z,30.62
2023-05-21T11:45:28.647Z,30.50
2023-05-21T11:46:37.821Z,30.42
2023-05-21T11:47:45.320Z,30.37
2023-05-21T11:48:54.096Z,30.51
2023-05-21T11:49:58.924Z,30.29
2023-05-21T11:51:05.765Z,30.46
2023-05-21T11:52:14.509Z,30.80
2023-05-21T11:53:19.843Z,30.50
2023-05-21T11:54:37.013Z,30.65
2023-05-21T11:55:47.729Z,30.81
2023-05-21T11:56:54.883Z,30.49
2023-05-21T11:58:01.760Z,30.31
2023-05-21T11:59:18.769Z,29.86
2023-05-21T12:00:25.441Z,30.18
2023-05-21T12:01:31.772Z,30.65
2023-05-21T12:02:38.234Z,30.41
2023-05-21T12:03:44.445Z,30.25
2023-05-21T12:04:51.639Z,30.86
2023-05-21T12:06:07.154Z,30.47
2023-05-21T12:07:15.538Z,29.95
2023-05-21T12:08:25.558Z,29.66
2023-05-21T12:09:34.094Z,29.89
2023-05-21T12:10:40.853Z,29.90
2023-05-21T12:11:47.657Z,30.19
2023-05-21T12:12:56.985Z,30.06
2023-05-21T12:14:03.699Z,29.91
2023-05-21T12:15:13.540Z,30.29
2023-05-21T12:16:21.070Z,29.62
2023-05-21T12:17:33.266Z,29.28
2023-05-21T12:18:43.312Z,29.22
2023-05-21T12:19:53.359Z,29.60
2023-05-21T12:20:59.685Z,29.71
2023-05-21T12:22:08.402Z,29.97
2023-05-21T12:23:26.282Z,29.52
2023-05-21T12:24:32.482Z,29.52
2023-05-21T12:25:46.488Z,29.76
2023-05-21T12:26:56.083Z,29.99
2023-05-21T12:28:06.522Z,29.97
2023-05-21T12:29:14.344Z,29.75
2023-05-21T12:30:21.369Z,29.89
2023-05-21T12:31:34.064Z,30.28
2023-05-21T12:32:45.635Z,29.98
2023-05-21T12:33:52.299Z,29.89
2023-05-21T12:34:58.882Z,29.89
2023-05-21T12:36:08.352Z,29.94
2023-05-21T12:37:18.246Z,29.82
2023-05-21T12:38:24.701Z,29.77
2023-05-21T12:39:31.509Z,29.96
2023-05-21T12:40:47.120Z,29.96
2023-05-21T12:41:57.354Z,30.26
2023-05-21T12:43:03.786Z,30.54
2023-05-21T12:44:11.633Z,30.64
2023-05-21T12:45:22.964Z,29.74
2023-05-21T12:46:29.739Z,29.48
2023-05-21T12:47:56.722Z,29.81
2023-05-21T12:49:04.642Z,30.30
2023-05-21T12:50:14.122Z,30.53
2023-05-21T12:51:21.644Z,30.33
2023-05-21T12:52:29.438Z,30.35
2023-05-21T12:53:42.650Z,30.53
2023-05-21T12:54:57.552Z,30.51
2023-05-21T12:56:09.102Z,30.05
2023-05-21T12:57:21.226Z,29.56
2023-05-21T12:58:27.357Z,29.77
2023-05-21T12:59:45.922Z,29.83
2023-05-21T13:00:56.776Z,30.39
2023-05-21T13:02:05.592Z,31.79
2023-05-21T13:03:12.086Z,33.63
2023-05-21T13:04:21.816Z,35.09
2023-05-21T13:05:28.746Z,35.40
2023-05-21T13:06:43.733Z,35.60
2023-05-21T13:07:48.550Z,35.76
2023-05-21T13:08:56.319Z,35.52
2023-05-21T13:10:04.054Z,34.98
2023-05-21T13:11:09.933Z,35.08
2023-05-21T13:12:16.202Z,34.88
2023-05-21T13:13:22.693Z,34.83
2023-05-21T13:14:29.049Z,33.90
2023-05-21T13:15:35.285Z,33.46
2023-05-21T13:16:41.782Z,32.84
2023-05-21T13:17:50.630Z,33.03
2023-05-21T13:19:00.247Z,32.42
2023-05-21T13:20:20.716Z,32.22
2023-05-21T13:21:26.965Z,31.72
2023-05-21T13:22:33.019Z,31.37
2023-05-21T13:23:39.790Z,30.37
2023-05-21T13:24:46.529Z,29.10
2023-05-21T13:25:52.758Z,29.10
2023-05-21T13:26:59.826Z,28.61
2023-05-21T13:28:13.517Z,28.46
2023-05-21T13:29:19.956Z,27.89
2023-05-21T13:30:26.745Z,28.16
2023-05-21T13:31:33.155Z,27.69
2023-05-21T13:32:39.989Z,27.59
2023-05-21T13:33:46.154Z,26.93
2023-05-21T13:34:52.205Z,26.18
2023-05-21T13:35:58.617Z,25.82
2023-05-21T13:37:04.626Z,25.32
2023-05-21T13:38:10.881Z,25.01
2023-05-21T13:39:17.956Z,24.29
2023-05-21T13:40:24.442Z,23.92
2023-05-21T13:41:30.908Z,23.18
2023-05-21T13:42:41.318Z,22.98
2023-05-21T13:43:47.530Z,22.85
2023-05-21T13:44:53.318Z,23.11
2023-05-21T13:46:01.282Z,22.82
2023-05-21T13:47:10.620Z,22.19
2023-05-21T13:48:16.986Z,22.16
2023-05-21T13:49:23.355Z,21.43
2023-05-21T13:50:29.935Z,20.87
2023-05-21T13:51:39.411Z,21.11
2023-05-21T13:52:48.690Z,20.79
2023-05-21T13:53:56.223Z,20.01
2023-05-21T13:55:16.129Z,20.03
2023-05-21T13:56:23.364Z,20.17
2023-05-21T13:57:31.377Z,19.98
2023-05-21T13:58:41.312Z,20.18
2023-05-21T13:59:48.041Z,20.59
2023-05-21T14:00:54.224Z,19.99
2023-05-21T14:02:01.522Z,19.66
2023-05-21T14:03:11.544Z,19.58
2023-05-21T14:04:19.237Z,19.37
2023-05-21T14:05:28.512Z,19.64
2023-05-21T14:06:35.247Z,19.17
2023-05-21T14:07:42.161Z,18.89
2023-05-21T14:08:48.592Z,19.08
2023-05-21T14:09:54.640Z,18.84
2023-05-21T14:11:05.207Z,18.42
2023-05-21T14:12:12.382Z,18.20
2023-05-21T14:13:20.071Z,18.18
2023-05-21T14:14:27.038Z,18.01
2023-05-21T14:15:32.957Z,18.18
2023-05-21T14:16:41.897Z,17.96
2023-05-21T14:17:49.094Z,17.76
2023-05-21T14:18:56.067Z,17.55
2023-05-21T14:20:02.523Z,17.34
2023-05-21T14:21:08.990Z,17.51
2023-05-21T14:22:15.446Z,17.22
2023-05-21T14:23:22.611Z,17.21
2023-05-21T14:24:29.550Z,17.03
2023-05-21T14:25:36.213Z,17.11
2023-05-21T14:26:47.724Z,17.21
2023-05-21T14:27:54.324Z,16.69
2023-05-21T14:29:00.896Z,16.30
2023-05-21T14:30:09.975Z,16.20
2023-05-21T14:31:19.648Z,16.23
2023-05-21T14:32:25.561Z,16.32
2023-05-21T14:33:34.205Z,16.37
2023-05-21T14:34:40.531Z,16.19
2023-05-21T14:35:48.026Z,15.70
2023-05-21T14:36:54.376Z,15.73
2023-05-21T14:38:00.216Z,16.02
2023-05-21T14:39:06.700Z,16.08
2023-05-21T14:40:23.406Z,15.43
2023-05-21T14:41:30.183Z,15.73
2023-05-21T14:42:37.030Z,15.89
2023-05-21T14:43:43.185Z,15.85
2023-05-21T14:44:49.328Z,15.58
2023-05-21T14:45:55.605Z,14.97